createdAt,value
2022-11-03T00:02:12.011Z,9.10
2022-11-03T00:04:39.783Z,9.10
2022-11-03T00:07:08.983Z,9.10
2022-11-03T00:09:36.662Z,9.10
2022-11-03T00:12:07.197Z,9.10
2022-11-03T00:14:36.686Z,9.00
2022-11-03T00:17:06.883Z,8.90
2022-11-03T00:19:35.014Z,8.90
2022-11-03T00:22:03.078Z,8.80
2022-11-03T00:24:32.322Z,8.80
2022-11-03T00:27:00.231Z,8.80
2022-11-03T00:29:30.966Z,8.80
2022-11-03T00:31:58.602Z,8.90
2022-11-03T00:34:29.152Z,8.80
2022-11-03T00:36:56.691Z,8.90
2022-11-03T00:39:24.566Z,8.90
2022-11-03T00:41:56.768Z,8.90
2022-11-03T00:44:25.090Z,8.90
2022-11-03T00:46:52.601Z,9.10
2022-11-03T00:49:23.074Z,8.90
2022-11-03T00:51:50.654Z,8.90
2022-11-03T00:54:18.821Z,9.10
2022-11-03T00:56:46.194Z,8.90
2022-11-03T00:59:15.564Z,8.90
2022-11-03T01:01:47.002Z,8.90
2022-11-03T01:04:35.315Z,8.90
2022-11-03T01:07:04.695Z,8.90
2022-11-03T01:09:37.026Z,9.00
2022-11-03T01:12:06.570Z,9.00
2022-11-03T01:14:39.240Z,9.00
2022-11-03T01:17:07.631Z,9.10
2022-11-03T01:19:35.918Z,9.20
2022-11-03T01:22:06.451Z,9.20
2022-11-03T01:24:38.270Z,9.30
2022-11-03T01:27:17.907Z,9.30
2022-11-03T01:29:55.196Z,9.40
2022-11-03T01:32:25.030Z,9.40
2022-11-03T01:35:02.464Z,9.40
2022-11-03T01:37:32.011Z,9.40
2022-11-03T01:40:00.024Z,9.30
2022-11-03T01:42:31.225Z,9.30
2022-11-03T01:45:01.342Z,9.30
2022-11-03T01:47:40.901Z,9.20
2022-11-03T01:50:15.936Z,9.20
2022-11-03T01:52:51.657Z,9.30
2022-11-03T01:55:31.001Z,9.20
2022-11-03T01:58:07.812Z,9.10
2022-11-03T02:00:41.500Z,9.10
2022-11-03T02:03:10.167Z,9.10
2022-11-03T02:05:45.062Z,9.10
2022-11-03T02:08:22.973Z,9.10
2022-11-03T02:10:51.744Z,9.00
2022-11-03T02:13:20.295Z,9.10
2022-11-03T02:15:50.853Z,9.00
2022-11-03T02:18:21.733Z,9.10
2022-11-03T02:21:02.605Z,9.00
2022-11-03T02:23:36.116Z,9.00
2022-11-03T02:26:08.402Z,9.00
2022-11-03T02:28:48.034Z,9.10
2022-11-03T02:31:27.128Z,9.00
2022-11-03T02:34:00.161Z,8.90
2022-11-03T02:36:35.405Z,8.90
2022-11-03T02:39:10.078Z,8.80
2022-11-03T02:41:40.649Z,8.80
2022-11-03T02:44:15.094Z,8.80
2022-11-03T02:46:44.571Z,8.80
2022-11-03T02:49:17.259Z,8.80
2022-11-03T02:51:45.030Z,8.80
2022-11-03T02:54:18.545Z,9.00
2022-11-03T02:56:50.883Z,8.80
2022-11-03T02:59:28.459Z,8.80
2022-11-03T03:02:03.277Z,8.60
2022-11-03T03:04:37.275Z,8.60
2022-11-03T03:07:07.513Z,8.80
2022-11-03T03:09:41.660Z,9.00
2022-11-03T03:12:13.564Z,8.80
2022-11-03T03:14:44.915Z,8.80
2022-11-03T03:17:18.965Z,8.70
2022-11-03T03:19:55.993Z,8.80
2022-11-03T03:22:31.093Z,8.80
2022-11-03T03:25:03.251Z,8.60
2022-11-03T03:27:34.846Z,8.90
2022-11-03T03:30:06.356Z,8.90
2022-11-03T03:32:37.805Z,8.90
2022-11-03T03:35:12.084Z,9.00
2022-11-03T03:37:45.796Z,8.90
2022-11-03T03:40:22.268Z,9.00
2022-11-03T03:42:51.975Z,9.00
2022-11-03T03:45:23.577Z,9.00
2022-11-03T03:47:56.399Z,8.90
2022-11-03T03:50:29.368Z,8.90
2022-11-03T03:53:00.538Z,8.90
2022-11-03T03:55:36.161Z,8.90
2022-11-03T03:58:09.076Z,8.80
2022-11-03T04:00:40.784Z,8.80
2022-11-03T04:03:17.544Z,8.70
2022-11-03T04:05:50.678Z,8.80
2022-11-03T04:08:18.274Z,8.80
2022-11-03T04:11:05.380Z,8.70
2022-11-03T04:13:53.493Z,8.70
2022-11-03T04:16:39.655Z,8.70
2022-11-03T04:19:27.386Z,8.70
2022-11-03T04:22:13.898Z,8.70
2022-11-03T04:24:41.793Z,8.70
2022-11-03T04:27:25.084Z,8.70
2022-11-03T04:29:57.954Z,8.70
2022-11-03T04:32:26.284Z,8.60
2022-11-03T04:34:54.327Z,8.60
2022-11-03T04:37:23.168Z,8.60
2022-11-03T04:39:50.552Z,8.60
2022-11-03T04:42:20.178Z,8.60
2022-11-03T04:44:49.273Z,8.60
2022-11-03T04:47:19.315Z,8.60
2022-11-03T04:49:48.195Z,8.60
2022-11-03T04:52:21.599Z,8.60
2022-11-03T04:54:52.335Z,8.60
2022-11-03T04:57:20.178Z,8.70
2022-11-03T04:59:53.850Z,8.70
2022-11-03T05:02:22.910Z,8.70
2022-11-03T05:04:50.316Z,8.80
2022-11-03T05:07:26.256Z,8.80
2022-11-03T05:09:53.675Z,8.70
2022-11-03T05:12:22.264Z,8.70
2022-11-03T05:14:54.179Z,8.70
2022-11-03T05:17:28.406Z,8.80
2022-11-03T05:19:59.265Z,8.70
2022-11-03T05:22:31.804Z,8.70
2022-11-03T05:25:04.138Z,8.70
2022-11-03T05:27:37.020Z,8.60
2022-11-03T05:30:08.177Z,8.60
2022-11-03T05:32:39.222Z,8.60
2022-11-03T05:35:19.478Z,8.30
2022-11-03T05:37:47.070Z,8.50
2022-11-03T05:40:22.865Z,8.50
2022-11-03T05:42:54.160Z,8.50
2022-11-03T05:45:24.632Z,8.50
2022-11-03T05:47:58.599Z,8.60
2022-11-03T05:50:29.095Z,8.60
2022-11-03T05:52:59.646Z,8.50
2022-11-03T05:55:32.198Z,8.50
2022-11-03T05:58:12.740Z,8.60
2022-11-03T06:00:48.392Z,8.40
2022-11-03T06:03:21.667Z,8.40
2022-11-03T06:06:06.016Z,8.40
2022-11-03T06:09:10.319Z,8.40
2022-11-03T06:12:29.908Z,8.50
2022-11-03T06:14:57.153Z,8.40
2022-11-03T06:17:31.312Z,8.50
2022-11-03T06:20:00.805Z,8.40
2022-11-03T06:22:42.478Z,8.50
2022-11-03T06:25:23.157Z,8.50
2022-11-03T06:28:01.127Z,8.50
2022-11-03T06:30:35.617Z,8.50
2022-11-03T06:33:17.263Z,8.50
2022-11-03T06:35:46.774Z,8.50
2022-11-03T06:38:22.001Z,8.50
2022-11-03T06:40:52.194Z,8.60
2022-11-03T06:43:24.879Z,8.60
2022-11-03T06:45:59.165Z,8.70
2022-11-03T06:48:28.537Z,8.70
2022-11-03T06:51:03.321Z,8.70
2022-11-03T06:53:33.854Z,8.80
2022-11-03T06:56:13.081Z,8.80
2022-11-03T06:58:41.809Z,8.80
2022-11-03T07:01:16.607Z,8.80
2022-11-03T07:03:44.388Z,8.80
2022-11-03T07:06:29.364Z,9.00
2022-11-03T07:09:13.403Z,9.00
2022-11-03T07:11:48.009Z,9.00
2022-11-03T07:14:17.860Z,9.00
2022-11-03T07:16:48.074Z,9.10
2022-11-03T07:19:19.737Z,9.10
2022-11-03T07:21:53.379Z,9.20
2022-11-03T07:24:24.446Z,9.20
2022-11-03T07:26:57.026Z,9.30
2022-11-03T07:29:28.422Z,9.30
2022-11-03T07:31:59.862Z,9.30
2022-11-03T07:34:32.287Z,9.40
2022-11-03T07:37:01.842Z,9.40
2022-11-03T07:39:34.743Z,9.50
2022-11-03T07:42:04.035Z,9.50
2022-11-03T07:44:31.119Z,9.50
2022-11-03T07:46:59.061Z,9.60
2022-11-03T07:49:28.570Z,9.70
2022-11-03T07:51:58.131Z,9.70
2022-11-03T07:54:30.315Z,9.90
2022-11-03T07:56:59.873Z,9.80
2022-11-03T07:59:33.918Z,9.90
2022-11-03T08:02:03.131Z,10.10
2022-11-03T08:04:31.996Z,10.40
2022-11-03T08:06:59.373Z,10.60
2022-11-03T08:09:28.222Z,10.70
2022-11-03T08:11:58.734Z,10.80
2022-11-03T08:14:28.898Z,10.90
2022-11-03T08:16:56.245Z,10.80
2022-11-03T08:19:23.882Z,10.90
2022-11-03T08:21:51.470Z,10.90
2022-11-03T08:24:18.965Z,10.90
2022-11-03T08:26:47.770Z,10.90
2022-11-03T08:29:15.131Z,11.00
2022-11-03T08:31:42.693Z,11.00
2022-11-03T08:34:10.106Z,10.90
2022-11-03T08:36:38.309Z,10.90
2022-11-03T08:39:06.020Z,10.90
2022-11-03T08:41:33.521Z,11.00
2022-11-03T08:44:02.065Z,10.90
2022-11-03T08:46:30.001Z,10.70
2022-11-03T08:48:57.703Z,11.00
2022-11-03T08:51:27.897Z,10.90
2022-11-03T08:53:55.613Z,10.90
2022-11-03T08:56:23.478Z,11.00
2022-11-03T08:58:59.091Z,11.00
2022-11-03T09:01:28.037Z,11.10
2022-11-03T09:03:55.413Z,11.00
2022-11-03T09:06:23.445Z,11.00
2022-11-03T09:11:38.086Z,11.20
2022-11-03T09:14:05.148Z,11.30
2022-11-03T09:16:35.445Z,11.40
2022-11-03T09:19:05.401Z,11.40
2022-11-03T09:21:35.841Z,11.50
2022-11-03T09:24:03.115Z,11.50
2022-11-03T09:26:30.267Z,11.60
2022-11-03T09:28:57.522Z,11.60
2022-11-03T09:31:28.627Z,11.60
2022-11-03T09:33:57.817Z,11.60
2022-11-03T09:36:25.356Z,11.70
2022-11-03T09:38:55.286Z,11.80
2022-11-03T09:41:44.347Z,11.80
2022-11-03T09:44:11.843Z,11.90
2022-11-03T09:46:39.819Z,11.90
2022-11-03T09:49:08.719Z,12.00
2022-11-03T09:51:38.208Z,12.10
2022-11-03T09:54:06.430Z,12.10
2022-11-03T09:56:37.330Z,12.40
2022-11-03T09:59:14.567Z,12.20
2022-11-03T10:01:44.004Z,12.40
2022-11-03T10:04:13.325Z,12.50
2022-11-03T10:06:40.952Z,12.80
2022-11-03T10:09:14.893Z,13.20
2022-11-03T10:11:46.823Z,13.50
2022-11-03T10:14:18.511Z,13.90
2022-11-03T10:16:53.554Z,14.40
2022-11-03T10:19:23.906Z,14.90
2022-11-03T10:21:53.465Z,15.40
2022-11-03T10:24:21.263Z,15.70
2022-11-03T10:26:50.155Z,15.70
2022-11-03T10:31:53.519Z,16.30
2022-11-03T10:34:34.362Z,15.80
2022-11-03T10:37:22.986Z,15.70
2022-11-03T10:39:54.911Z,15.60
2022-11-03T10:42:23.793Z,15.60
2022-11-03T10:44:58.148Z,15.30
2022-11-03T10:47:32.554Z,15.00
2022-11-03T10:50:13.595Z,14.70
2022-11-03T10:52:40.856Z,14.50
2022-11-03T10:55:08.956Z,14.50
2022-11-03T10:57:36.237Z,14.40
2022-11-03T11:00:04.857Z,14.30
2022-11-03T11:02:40.771Z,14.30
2022-11-03T11:05:19.093Z,14.10
2022-11-03T11:07:48.122Z,14.20
2022-11-03T11:10:18.335Z,14.30
2022-11-03T11:13:19.299Z,14.40
2022-11-03T11:15:49.397Z,14.50
2022-11-03T11:18:52.581Z,14.40
2022-11-03T11:22:00.042Z,14.40
2022-11-03T11:24:57.897Z,14.50
2022-11-03T11:28:07.147Z,14.50
2022-11-03T11:31:28.418Z,14.50
2022-11-03T11:34:34.425Z,14.50
2022-11-03T11:37:35.180Z,14.50
2022-11-03T11:40:03.873Z,14.50
2022-11-03T11:42:33.714Z,14.50
2022-11-03T11:45:05.594Z,14.50
2022-11-03T11:47:45.854Z,14.70
2022-11-03T11:50:29.736Z,14.80
2022-11-03T11:53:02.358Z,14.70
2022-11-03T11:55:38.565Z,14.70
2022-11-03T11:58:15.030Z,14.60
2022-11-03T12:00:52.697Z,14.50
2022-11-03T12:03:27.913Z,14.40
2022-11-03T12:05:55.040Z,14.30
2022-11-03T12:08:31.736Z,14.10
2022-11-03T12:11:03.033Z,14.10
2022-11-03T12:13:54.296Z,14.10
2022-11-03T12:16:35.349Z,14.20
2022-11-03T12:19:39.466Z,14.20
2022-11-03T12:22:09.754Z,14.20
2022-11-03T12:24:49.681Z,14.40
2022-11-03T12:27:41.739Z,14.50
2022-11-03T12:30:20.105Z,14.70
2022-11-03T12:32:53.958Z,14.80
2022-11-03T12:35:24.839Z,14.70
2022-11-03T12:37:52.314Z,14.70
2022-11-03T12:40:20.960Z,14.60
2022-11-03T12:42:48.335Z,14.50
2022-11-03T12:45:15.939Z,14.50
2022-11-03T12:47:43.854Z,14.40
2022-11-03T12:50:10.957Z,14.30
2022-11-03T12:52:44.269Z,14.30
2022-11-03T12:55:12.672Z,14.20
2022-11-03T12:57:41.560Z,14.20
2022-11-03T13:00:09.912Z,14.20
2022-11-03T13:02:37.915Z,14.20
2022-11-03T13:05:07.095Z,14.20
2022-11-03T13:07:35.291Z,14.10
2022-11-03T13:10:03.894Z,14.10
2022-11-03T13:12:31.529Z,14.00
2022-11-03T13:15:01.633Z,14.00
2022-11-03T13:17:32.246Z,13.90
2022-11-03T13:20:16.953Z,13.90
2022-11-03T13:22:45.122Z,13.90
2022-11-03T13:25:12.728Z,13.80
2022-11-03T13:27:40.665Z,13.80
2022-11-03T13:30:10.363Z,13.80
2022-11-03T13:32:37.711Z,13.80
2022-11-03T13:35:08.227Z,13.70
2022-11-03T13:37:40.283Z,13.80
2022-11-03T13:40:10.743Z,13.70
2022-11-03T13:42:43.743Z,13.70
2022-11-03T13:45:15.251Z,13.70
2022-11-03T13:48:29.950Z,13.70
2022-11-03T13:50:31.700Z,13.70
2022-11-03T13:55:46.617Z,13.70
2022-11-03T14:01:04.525Z,13.60
2022-11-03T14:06:19.178Z,13.50
2022-11-03T14:08:51.958Z,13.50
2022-11-03T14:11:38.094Z,13.70
2022-11-03T14:14:08.462Z,13.50
2022-11-03T14:16:37.108Z,13.40
2022-11-03T14:19:05.167Z,13.40
2022-11-03T14:21:32.906Z,13.40
2022-11-03T14:24:00.276Z,13.30
2022-11-03T14:26:41.689Z,13.30
2022-11-03T14:29:11.289Z,13.30
2022-11-03T14:31:39.787Z,13.30
2022-11-03T14:34:07.607Z,13.20
2022-11-03T14:36:34.673Z,13.20
2022-11-03T14:39:02.085Z,13.10
2022-11-03T14:41:47.844Z,13.10
2022-11-03T14:44:15.680Z,13.10
2022-11-03T14:46:44.468Z,13.00
2022-11-03T14:49:13.246Z,13.00
2022-11-03T14:51:42.204Z,12.90
2022-11-03T14:54:09.572Z,13.00
2022-11-03T14:56:36.997Z,13.00
2022-11-03T14:59:04.780Z,12.90
2022-11-03T15:01:32.485Z,12.90
2022-11-03T15:04:01.694Z,12.90
2022-11-03T15:06:29.210Z,12.90
2022-11-03T15:08:57.199Z,12.90
2022-11-03T15:11:24.542Z,12.90
2022-11-03T15:13:52.920Z,12.90
2022-11-03T15:16:20.968Z,12.90
2022-11-03T15:18:56.219Z,12.90
2022-11-03T15:21:24.964Z,12.90
2022-11-03T15:26:43.375Z,12.90
2022-11-03T15:29:11.184Z,12.90
2022-11-03T15:31:44.476Z,12.90
2022-11-03T15:34:18.580Z,12.80
2022-11-03T15:36:47.395Z,12.80
2022-11-03T15:39:15.081Z,12.80
2022-11-03T15:41:42.554Z,12.80
2022-11-03T15:44:13.331Z,12.80
2022-11-03T15:46:40.333Z,12.90
2022-11-03T15:49:08.133Z,12.80
2022-11-03T15:51:35.259Z,13.00
2022-11-03T15:54:08.341Z,12.80
2022-11-03T15:56:37.118Z,12.80
2022-11-03T15:59:04.873Z,12.80
2022-11-03T16:01:32.124Z,12.80
2022-11-03T16:04:02.268Z,12.80
2022-11-03T16:07:06.320Z,12.80
2022-11-03T16:09:19.052Z,12.80
2022-11-03T16:11:46.380Z,12.80
2022-11-03T16:14:13.994Z,12.80
2022-11-03T16:16:41.486Z,12.80
2022-11-03T16:19:10.620Z,12.80
2022-11-03T16:21:38.486Z,12.80
2022-11-03T16:24:07.004Z,12.80
2022-11-03T16:26:35.954Z,12.80
2022-11-03T16:29:03.795Z,12.80
2022-11-03T16:31:32.074Z,12.80
2022-11-03T16:34:05.008Z,12.90
2022-11-03T16:36:32.261Z,12.80
2022-11-03T16:39:04.441Z,12.80
2022-11-03T16:41:32.286Z,12.80
2022-11-03T16:44:07.175Z,12.80
2022-11-03T16:46:35.093Z,12.80
2022-11-03T16:49:03.491Z,12.80
2022-11-03T16:51:33.969Z,12.80
2022-11-03T16:54:02.654Z,12.80
2022-11-03T16:56:29.942Z,12.80
2022-11-03T16:58:57.230Z,12.80
2022-11-03T17:01:25.575Z,12.70
2022-11-03T17:03:53.558Z,12.70
2022-11-03T17:06:20.556Z,12.70
2022-11-03T17:08:52.901Z,12.60
2022-11-03T17:11:39.718Z,12.60
2022-11-03T17:14:09.199Z,12.60
2022-11-03T17:16:37.346Z,12.60
2022-11-03T17:19:04.581Z,12.60
2022-11-03T17:21:31.877Z,12.60
2022-11-03T17:23:59.907Z,12.60
2022-11-03T17:26:36.549Z,12.70
2022-11-03T17:29:05.914Z,12.70
2022-11-03T17:31:32.874Z,12.60
2022-11-03T17:34:01.675Z,12.60
2022-11-03T17:36:28.571Z,12.60
2022-11-03T17:38:57.042Z,12.60
2022-11-03T17:41:24.781Z,12.60
2022-11-03T17:43:51.935Z,12.50
2022-11-03T17:46:18.845Z,12.50
2022-11-03T17:48:47.869Z,12.50
2022-11-03T17:51:18.079Z,12.50
2022-11-03T17:53:46.974Z,12.40
2022-11-03T17:56:30.538Z,12.50
2022-11-03T17:59:00.963Z,12.50
2022-11-03T18:01:36.049Z,12.40
2022-11-03T18:04:06.059Z,12.50
2022-11-03T18:06:35.433Z,12.50
2022-11-03T18:09:02.714Z,12.50
2022-11-03T18:11:50.396Z,12.50
2022-11-03T18:14:28.388Z,12.40
2022-11-03T18:16:59.325Z,12.50
2022-11-03T18:19:27.461Z,12.50
2022-11-03T18:22:05.442Z,12.40
2022-11-03T18:24:35.659Z,12.40
2022-11-03T18:27:03.282Z,12.40
2022-11-03T18:29:31.408Z,12.40
2022-11-03T18:32:05.934Z,12.40
2022-11-03T18:34:34.969Z,12.30
2022-11-03T18:37:04.354Z,12.40
2022-11-03T18:39:36.108Z,12.40
2022-11-03T18:42:12.986Z,12.30
2022-11-03T18:44:43.063Z,12.30
2022-11-03T18:47:11.356Z,12.40
2022-11-03T18:49:47.463Z,12.30
2022-11-03T18:52:22.588Z,12.30
2022-11-03T18:54:54.466Z,12.20
2022-11-03T18:57:26.365Z,12.20
2022-11-03T19:00:02.930Z,12.20
2022-11-03T19:02:31.089Z,12.20
2022-11-03T19:04:59.463Z,12.20
2022-11-03T19:07:36.170Z,12.20
2022-11-03T19:10:06.125Z,12.20
2022-11-03T19:12:43.482Z,12.10
2022-11-03T19:15:18.587Z,12.10
2022-11-03T19:17:53.235Z,12.10
2022-11-03T19:20:21.410Z,12.10
2022-11-03T19:22:53.644Z,12.00
2022-11-03T19:25:21.288Z,12.00
2022-11-03T19:27:55.498Z,12.00
2022-11-03T19:30:23.139Z,12.00
2022-11-03T19:33:02.495Z,11.90
2022-11-03T19:35:46.365Z,12.00
2022-11-03T19:38:29.687Z,11.80
2022-11-03T19:41:33.807Z,12.00
2022-11-03T19:44:14.464Z,11.90
2022-11-03T19:46:52.276Z,11.90
2022-11-03T19:49:34.898Z,11.80
2022-11-03T19:52:12.352Z,11.80
2022-11-03T19:54:52.648Z,11.80
2022-11-03T19:57:32.059Z,11.80
2022-11-03T20:00:12.156Z,11.70
2022-11-03T20:02:43.759Z,11.70
2022-11-03T20:05:18.546Z,11.70
2022-11-03T20:07:50.320Z,11.80
2022-11-03T20:10:31.789Z,11.70
2022-11-03T20:13:09.952Z,11.80
2022-11-03T20:15:42.820Z,11.80
2022-11-03T20:18:17.703Z,11.80
2022-11-03T20:20:51.201Z,11.80
2022-11-03T20:23:32.490Z,11.80
2022-11-03T20:26:02.808Z,11.70
2022-11-03T20:28:37.020Z,11.70
2022-11-03T20:31:15.525Z,11.70
2022-11-03T20:33:46.009Z,11.70
2022-11-03T20:36:19.796Z,11.70
2022-11-03T20:39:03.907Z,11.70
2022-11-03T20:41:44.744Z,11.70
2022-11-03T20:44:13.950Z,11.70
2022-11-03T20:46:50.431Z,11.60
2022-11-03T20:49:31.176Z,11.60
2022-11-03T20:52:17.512Z,11.60
2022-11-03T20:54:51.301Z,11.60
2022-11-03T20:57:29.211Z,11.60
2022-11-03T21:00:04.735Z,11.70
2022-11-03T21:02:43.602Z,11.70
2022-11-03T21:05:17.471Z,11.70
2022-11-03T21:07:56.525Z,11.70
2022-11-03T21:10:35.879Z,11.70
2022-11-03T21:13:30.257Z,11.70
2022-11-03T21:16:24.599Z,11.60
2022-11-03T21:19:12.178Z,11.70
2022-11-03T21:21:43.621Z,11.50
2022-11-03T21:24:12.923Z,11.60
2022-11-03T21:26:43.574Z,11.60
2022-11-03T21:29:19.578Z,11.70
2022-11-03T21:31:59.662Z,11.60
2022-11-03T21:34:37.719Z,11.60
2022-11-03T21:37:17.815Z,11.60
2022-11-03T21:39:50.130Z,11.70
2022-11-03T21:42:37.363Z,11.70
2022-11-03T21:45:12.697Z,11.70
2022-11-03T21:48:02.150Z,11.60
2022-11-03T21:50:34.195Z,11.60
2022-11-03T21:53:07.725Z,11.60
2022-11-03T21:55:39.036Z,11.60
2022-11-03T21:58:12.855Z,11.60
2022-11-03T22:00:47.365Z,11.60
2022-11-03T22:03:15.943Z,11.60
2022-11-03T22:05:46.701Z,11.60
2022-11-03T22:08:22.833Z,11.50
2022-11-03T22:11:14.708Z,11.50
2022-11-03T22:13:46.018Z,11.50
2022-11-03T22:16:35.473Z,11.50
2022-11-03T22:19:30.516Z,11.50
2022-11-03T22:22:20.509Z,11.50
2022-11-03T22:25:12.269Z,11.50
2022-11-03T22:27:43.551Z,11.60
2022-11-03T22:30:31.608Z,11.60
2022-11-03T22:33:03.577Z,11.60
2022-11-03T22:35:54.383Z,11.60
2022-11-03T22:38:42.018Z,11.60
2022-11-03T22:41:28.144Z,11.60
2022-11-03T22:44:19.276Z,11.60
2022-11-03T22:46:46.853Z,11.60
2022-11-03T22:49:16.447Z,11.60
2022-11-03T22:51:48.665Z,11.60
2022-11-03T22:54:16.695Z,11.60
2022-11-03T22:56:49.806Z,11.60
2022-11-03T22:59:22.797Z,11.70
2022-11-03T23:01:56.898Z,11.70
2022-11-03T23:04:26.237Z,11.70
2022-11-03T23:06:53.957Z,11.70
2022-11-03T23:09:23.732Z,11.90
2022-11-03T23:11:51.266Z,11.70
2022-11-03T23:14:23.646Z,11.70
2022-11-03T23:16:51.258Z,11.70
2022-11-03T23:19:39.122Z,11.70
2022-11-03T23:22:08.208Z,11.70
2022-11-03T23:24:54.303Z,11.70
2022-11-03T23:27:21.823Z,11.70
2022-11-03T23:29:49.242Z,11.70
2022-11-03T23:32:16.678Z,11.80
2022-11-03T23:34:44.027Z,11.70
2022-11-03T23:37:17.390Z,11.80
2022-11-03T23:39:44.640Z,11.80
2022-11-03T23:42:12.350Z,11.80
2022-11-03T23:44:57.920Z,11.80
2022-11-03T23:47:44.036Z,11.90
2022-11-03T23:50:10.909Z,11.80
2022-11-03T23:52:39.893Z,11.90
2022-11-03T23:55:08.351Z,11.90
2022-11-03T23:57:55.088Z,11.90
